sensor_id;sensor_type;location;lat;lon;timestamp;P1;durP1;ratioP1;P2;durP2;ratioP2
55330;SDS011;58851;42.984;20.336;2023-03-17T00:00:43;46.33;;;23.65;;
55330;SDS011;58851;42.984;20.336;2023-03-17T00:03:24;22.65;;;17.13;;
55330;SDS011;58851;42.984;20.336;2023-03-17T00:05:55;32.67;;;18.13;;
55330;SDS011;58851;42.984;20.336;2023-03-17T00:08:23;28.65;;;16.92;;
55330;SDS011;58851;42.984;20.336;2023-03-17T00:10:53;36.63;;;21.25;;
55330;SDS011;58851;42.984;20.336;2023-03-17T00:13:19;48.67;;;28.75;;
55330;SDS011;58851;42.984;20.336;2023-03-17T00:15:46;49.20;;;29.92;;
55330;SDS011;58851;42.984;20.336;2023-03-17T00:18:16;55.53;;;30.73;;
55330;SDS011;58851;42.984;20.336;2023-03-17T00:20:44;60.63;;;36.97;;
55330;SDS011;58851;42.984;20.336;2023-03-17T00:23:16;52.55;;;32.08;;
55330;SDS011;58851;42.984;20.336;2023-03-17T00:25:44;50.53;;;29.77;;
55330;SDS011;58851;42.984;20.336;2023-03-17T00:28:17;33.70;;;22.02;;
55330;SDS011;58851;42.984;20.336;2023-03-17T00:30:51;34.03;;;22.95;;
55330;SDS011;58851;42.984;20.336;2023-03-17T00:33:21;31.33;;;24.40;;
55330;SDS011;58851;42.984;20.336;2023-03-17T00:35:50;25.75;;;18.75;;
55330;SDS011;58851;42.984;20.336;2023-03-17T00:38:17;22.13;;;18.52;;
55330;SDS011;58851;42.984;20.336;2023-03-17T00:40:44;26.20;;;16.48;;
55330;SDS011;58851;42.984;20.336;2023-03-17T00:43:11;34.22;;;23.83;;
55330;SDS011;58851;42.984;20.336;2023-03-17T00:45:38;34.17;;;30.52;;
55330;SDS011;58851;42.984;20.336;2023-03-17T00:48:09;15.98;;;11.85;;
55330;SDS011;58851;42.984;20.336;2023-03-17T00:50:39;26.17;;;17.23;;
55330;SDS011;58851;42.984;20.336;2023-03-17T00:53:05;32.25;;;19.48;;
55330;SDS011;58851;42.984;20.336;2023-03-17T00:55:34;29.00;;;18.27;;
55330;SDS011;58851;42.984;20.336;2023-03-17T00:58:01;30.27;;;17.45;;
55330;SDS011;58851;42.984;20.336;2023-03-17T01:00:34;52.92;;;31.08;;
55330;SDS011;58851;42.984;20.336;2023-03-17T01:03:00;50.05;;;29.20;;
55330;SDS011;58851;42.984;20.336;2023-03-17T01:05:27;26.20;;;17.92;;
55330;SDS011;58851;42.984;20.336;2023-03-17T01:07:54;24.60;;;16.05;;
55330;SDS011;58851;42.984;20.336;2023-03-17T01:10:25;22.77;;;13.50;;
55330;SDS011;58851;42.984;20.336;2023-03-17T01:12:53;22.73;;;14.50;;
55330;SDS011;58851;42.984;20.336;2023-03-17T01:15:24;26.42;;;15.27;;
55330;SDS011;58851;42.984;20.336;2023-03-17T01:17:54;24.90;;;13.35;;
55330;SDS011;58851;42.984;20.336;2023-03-17T01:20:22;21.05;;;13.52;;
55330;SDS011;58851;42.984;20.336;2023-03-17T01:22:50;198.18;;;95.90;;
55330;SDS011;58851;42.984;20.336;2023-03-17T01:25:17;368.80;;;169.45;;
55330;SDS011;58851;42.984;20.336;2023-03-17T01:27:43;199.48;;;96.47;;
55330;SDS011;58851;42.984;20.336;2023-03-17T01:30:55;180.23;;;87.78;;
55330;SDS011;58851;42.984;20.336;2023-03-17T01:33:02;74.30;;;39.03;;
55330;SDS011;58851;42.984;20.336;2023-03-17T01:35:30;41.10;;;24.17;;
55330;SDS011;58851;42.984;20.336;2023-03-17T01:37:57;41.25;;;22.23;;
55330;SDS011;58851;42.984;20.336;2023-03-17T01:40:28;23.60;;;14.77;;
55330;SDS011;58851;42.984;20.336;2023-03-17T01:43:13;21.30;;;13.27;;
55330;SDS011;58851;42.984;20.336;2023-03-17T01:51:16;51.88;;;28.45;;
55330;SDS011;58851;42.984;20.336;2023-03-17T01:53:46;50.80;;;29.05;;
55330;SDS011;58851;42.984;20.336;2023-03-17T01:56:15;62.58;;;34.75;;
55330;SDS011;58851;42.984;20.336;2023-03-17T01:58:42;49.10;;;29.80;;
55330;SDS011;58851;42.984;20.336;2023-03-17T02:01:11;28.88;;;18.70;;
55330;SDS011;58851;42.984;20.336;2023-03-17T02:03:38;26.15;;;14.32;;
55330;SDS011;58851;42.984;20.336;2023-03-17T02:06:04;24.35;;;17.00;;
55330;SDS011;58851;42.984;20.336;2023-03-17T02:08:31;23.63;;;14.27;;
55330;SDS011;58851;42.984;20.336;2023-03-17T02:10:57;22.30;;;11.38;;
55330;SDS011;58851;42.984;20.336;2023-03-17T02:13:23;21.52;;;13.73;;
55330;SDS011;58851;42.984;20.336;2023-03-17T02:15:49;18.45;;;11.32;;
55330;SDS011;58851;42.984;20.336;2023-03-17T02:18:17;15.38;;;9.90;;
55330;SDS011;58851;42.984;20.336;2023-03-17T02:23:16;19.65;;;12.18;;
55330;SDS011;58851;42.984;20.336;2023-03-17T02:25:46;14.70;;;9.03;;
55330;SDS011;58851;42.984;20.336;2023-03-17T02:28:17;15.05;;;8.70;;
55330;SDS011;58851;42.984;20.336;2023-03-17T02:30:50;11.13;;;7.35;;
55330;SDS011;58851;42.984;20.336;2023-03-17T02:33:16;15.63;;;7.85;;
55330;SDS011;58851;42.984;20.336;2023-03-17T02:35:43;27.25;;;14.27;;
55330;SDS011;58851;42.984;20.336;2023-03-17T02:38:08;37.20;;;19.13;;
55330;SDS011;58851;42.984;20.336;2023-03-17T02:40:34;46.80;;;22.08;;
55330;SDS011;58851;42.984;20.336;2023-03-17T02:43:01;27.80;;;13.15;;
55330;SDS011;58851;42.984;20.336;2023-03-17T02:45:26;25.10;;;11.48;;
55330;SDS011;58851;42.984;20.336;2023-03-17T02:47:52;32.05;;;17.08;;
55330;SDS011;58851;42.984;20.336;2023-03-17T02:50:20;26.80;;;15.43;;
55330;SDS011;58851;42.984;20.336;2023-03-17T02:52:47;22.45;;;14.55;;
55330;SDS011;58851;42.984;20.336;2023-03-17T02:55:14;23.70;;;13.70;;
55330;SDS011;58851;42.984;20.336;2023-03-17T02:57:40;20.48;;;13.07;;
55330;SDS011;58851;42.984;20.336;2023-03-17T03:00:06;22.90;;;13.32;;
55330;SDS011;58851;42.984;20.336;2023-03-17T03:02:38;20.77;;;11.75;;
55330;SDS011;58851;42.984;20.336;2023-03-17T03:05:04;28.60;;;15.93;;
55330;SDS011;58851;42.984;20.336;2023-03-17T03:07:31;18.95;;;12.75;;
55330;SDS011;58851;42.984;20.336;2023-03-17T03:09:57;11.60;;;8.88;;
55330;SDS011;58851;42.984;20.336;2023-03-17T03:12:23;14.48;;;8.25;;
55330;SDS011;58851;42.984;20.336;2023-03-17T03:14:49;11.93;;;7.03;;
55330;SDS011;58851;42.984;20.336;2023-03-17T03:17:15;10.75;;;6.72;;
55330;SDS011;58851;42.984;20.336;2023-03-17T03:19:41;17.52;;;8.13;;
55330;SDS011;58851;42.984;20.336;2023-03-17T03:22:07;10.48;;;7.38;;
55330;SDS011;58851;42.984;20.336;2023-03-17T03:24:33;13.45;;;8.57;;
55330;SDS011;58851;42.984;20.336;2023-03-17T03:26:59;18.90;;;9.43;;
55330;SDS011;58851;42.984;20.336;2023-03-17T03:29:25;18.25;;;10.27;;
55330;SDS011;58851;42.984;20.336;2023-03-17T03:31:51;22.75;;;15.00;;
55330;SDS011;58851;42.984;20.336;2023-03-17T03:34:17;15.15;;;10.40;;
55330;SDS011;58851;42.984;20.336;2023-03-17T03:36:42;13.75;;;9.80;;
55330;SDS011;58851;42.984;20.336;2023-03-17T03:39:08;14.57;;;9.20;;
55330;SDS011;58851;42.984;20.336;2023-03-17T03:41:34;34.33;;;16.85;;
55330;SDS011;58851;42.984;20.336;2023-03-17T03:44:00;22.23;;;12.48;;
55330;SDS011;58851;42.984;20.336;2023-03-17T03:46:26;14.48;;;9.20;;
55330;SDS011;58851;42.984;20.336;2023-03-17T03:48:53;20.58;;;13.38;;
55330;SDS011;58851;42.984;20.336;2023-03-17T03:51:19;38.85;;;19.52;;
55330;SDS011;58851;42.984;20.336;2023-03-17T03:53:45;41.47;;;33.15;;
55330;SDS011;58851;42.984;20.336;2023-03-17T03:56:12;30.30;;;21.42;;
55330;SDS011;58851;42.984;20.336;2023-03-17T03:58:38;36.53;;;19.70;;
55330;SDS011;58851;42.984;20.336;2023-03-17T04:01:04;25.73;;;12.30;;
55330;SDS011;58851;42.984;20.336;2023-03-17T04:03:31;37.75;;;18.90;;
55330;SDS011;58851;42.984;20.336;2023-03-17T04:05:57;30.95;;;18.63;;
55330;SDS011;58851;42.984;20.336;2023-03-17T04:08:23;31.02;;;14.55;;
55330;SDS011;58851;42.984;20.336;2023-03-17T04:10:49;57.03;;;25.50;;
55330;SDS011;58851;42.984;20.336;2023-03-17T04:13:14;22.10;;;10.40;;
55330;SDS011;58851;42.984;20.336;2023-03-17T04:15:40;17.15;;;12.50;;
55330;SDS011;58851;42.984;20.336;2023-03-17T04:18:06;23.63;;;13.57;;
55330;SDS011;58851;42.984;20.336;2023-03-17T04:20:32;11.05;;;7.70;;
55330;SDS011;58851;42.984;20.336;2023-03-17T04:22:58;9.77;;;7.03;;
55330;SDS011;58851;42.984;20.336;2023-03-17T04:25:23;18.25;;;8.90;;
55330;SDS011;58851;42.984;20.336;2023-03-17T04:27:49;17.02;;;10.68;;
55330;SDS011;58851;42.984;20.336;2023-03-17T04:30:15;24.58;;;12.52;;
55330;SDS011;58851;42.984;20.336;2023-03-17T04:32:42;13.07;;;8.50;;
55330;SDS011;58851;42.984;20.336;2023-03-17T04:35:12;13.25;;;10.07;;
55330;SDS011;58851;42.984;20.336;2023-03-17T04:37:39;123.63;;;52.38;;
55330;SDS011;58851;42.984;20.336;2023-03-17T04:40:06;37.42;;;18.52;;
55330;SDS011;58851;42.984;20.336;2023-03-17T04:42:34;39.33;;;18.15;;
55330;SDS011;58851;42.984;20.336;2023-03-17T04:45:00;22.00;;;11.88;;
55330;SDS011;58851;42.984;20.336;2023-03-17T04:47:26;19.75;;;9.77;;
55330;SDS011;58851;42.984;20.336;2023-03-17T04:49:52;18.33;;;10.65;;
55330;SDS011;58851;42.984;20.336;2023-03-17T04:52:18;25.23;;;14.05;;
55330;SDS011;58851;42.984;20.336;2023-03-17T04:54:43;31.17;;;16.95;;
55330;SDS011;58851;42.984;20.336;2023-03-17T04:57:09;22.55;;;14.52;;
55330;SDS011;58851;42.984;20.336;2023-03-17T04:59:35;18.35;;;11.15;;
55330;SDS011;58851;42.984;20.336;2023-03-17T05:02:01;22.80;;;13.05;;
55330;SDS011;58851;42.984;20.336;2023-03-17T05:04:27;19.88;;;12.90;;
55330;SDS011;58851;42.984;20.336;2023-03-17T05:06:53;15.50;;;10.63;;
55330;SDS011;58851;42.984;20.336;2023-03-17T05:09:18;21.35;;;13.93;;
55330;SDS011;58851;42.984;20.336;2023-03-17T05:11:44;18.17;;;11.25;;
55330;SDS011;58851;42.984;20.336;2023-03-17T05:14:10;24.70;;;15.32;;
55330;SDS011;58851;42.984;20.336;2023-03-17T05:16:35;36.03;;;23.08;;
55330;SDS011;58851;42.984;20.336;2023-03-17T05:19:01;31.55;;;20.00;;
55330;SDS011;58851;42.984;20.336;2023-03-17T05:21:27;85.85;;;39.80;;
55330;SDS011;58851;42.984;20.336;2023-03-17T05:23:53;575.15;;;275.05;;
55330;SDS011;58851;42.984;20.336;2023-03-17T05:26:19;564.50;;;253.40;;
55330;SDS011;58851;42.984;20.336;2023-03-17T05:28:45;369.27;;;162.20;;
55330;SDS011;58851;42.984;20.336;2023-03-17T05:31:12;312.10;;;144.82;;
55330;SDS011;58851;42.984;20.336;2023-03-17T05:33:38;109.00;;;51.63;;
55330;SDS011;58851;42.984;20.336;2023-03-17T05:36:03;39.83;;;24.65;;
55330;SDS011;58851;42.984;20.336;2023-03-17T05:38:29;32.72;;;20.00;;
55330;SDS011;58851;42.984;20.336;2023-03-17T05:40:55;24.42;;;14.07;;
55330;SDS011;58851;42.984;20.336;2023-03-17T05:43:22;11.25;;;7.30;;
55330;SDS011;58851;42.984;20.336;2023-03-17T05:45:47;10.60;;;5.82;;
55330;SDS011;58851;42.984;20.336;2023-03-17T05:48:14;10.15;;;7.15;;
55330;SDS011;58851;42.984;20.336;2023-03-17T05:50:41;12.88;;;7.43;;
55330;SDS011;58851;42.984;20.336;2023-03-17T05:53:07;17.80;;;9.70;;
55330;SDS011;58851;42.984;20.336;2023-03-17T05:55:33;17.48;;;7.90;;
55330;SDS011;58851;42.984;20.336;2023-03-17T05:57:59;12.88;;;7.00;;
55330;SDS011;58851;42.984;20.336;2023-03-17T06:00:25;15.73;;;13.05;;
55330;SDS011;58851;42.984;20.336;2023-03-17T06:02:52;14.25;;;10.25;;
55330;SDS011;58851;42.984;20.336;2023-03-17T06:05:18;14.00;;;8.90;;
55330;SDS011;58851;42.984;20.336;2023-03-17T06:07:44;17.60;;;8.32;;
55330;SDS011;58851;42.984;20.336;2023-03-17T06:10:10;25.08;;;14.23;;
55330;SDS011;58851;42.984;20.336;2023-03-17T06:12:36;40.38;;;21.55;;
55330;SDS011;58851;42.984;20.336;2023-03-17T06:15:02;28.33;;;13.18;;
55330;SDS011;58851;42.984;20.336;2023-03-17T06:17:29;19.75;;;10.85;;
55330;SDS011;58851;42.984;20.336;2023-03-17T06:19:55;24.38;;;14.82;;
55330;SDS011;58851;42.984;20.336;2023-03-17T06:22:21;250.35;;;142.15;;
55330;SDS011;58851;42.984;20.336;2023-03-17T06:24:46;194.65;;;118.88;;
55330;SDS011;58851;42.984;20.336;2023-03-17T06:27:12;79.32;;;48.80;;
55330;SDS011;58851;42.984;20.336;2023-03-17T06:29:38;33.38;;;20.42;;
55330;SDS011;58851;42.984;20.336;2023-03-17T06:32:04;18.15;;;10.77;;
55330;SDS011;58851;42.984;20.336;2023-03-17T06:34:30;13.77;;;9.77;;
55330;SDS011;58851;42.984;20.336;2023-03-17T06:36:56;17.48;;;10.73;;
55330;SDS011;58851;42.984;20.336;2023-03-17T06:39:23;18.95;;;10.48;;
55330;SDS011;58851;42.984;20.336;2023-03-17T06:41:48;11.55;;;8.27;;
55330;SDS011;58851;42.984;20.336;2023-03-17T06:44:14;12.95;;;8.23;;
55330;SDS011;58851;42.984;20.336;2023-03-17T06:46:40;20.55;;;13.05;;
55330;SDS011;58851;42.984;20.336;2023-03-17T06:49:06;14.63;;;9.48;;
55330;SDS011;58851;42.984;20.336;2023-03-17T06:51:32;18.42;;;11.10;;
55330;SDS011;58851;42.984;20.336;2023-03-17T06:54:01;20.00;;;12.90;;
55330;SDS011;58851;42.984;20.336;2023-03-17T06:56:27;10.85;;;6.97;;
55330;SDS011;58851;42.984;20.336;2023-03-17T06:58:52;8.80;;;6.95;;
55330;SDS011;58851;42.984;20.336;2023-03-17T07:01:18;23.55;;;18.58;;
55330;SDS011;58851;42.984;20.336;2023-03-17T07:03:44;26.15;;;16.08;;
55330;SDS011;58851;42.984;20.336;2023-03-17T07:06:10;30.00;;;17.48;;
55330;SDS011;58851;42.984;20.336;2023-03-17T07:08:36;28.15;;;18.10;;
55330;SDS011;58851;42.984;20.336;2023-03-17T07:11:02;13.10;;;9.35;;
55330;SDS011;58851;42.984;20.336;2023-03-17T07:13:29;11.75;;;8.18;;
55330;SDS011;58851;42.984;20.336;2023-03-17T07:15:59;10.95;;;8.57;;
55330;SDS011;58851;42.984;20.336;2023-03-17T07:18:27;20.35;;;12.70;;
55330;SDS011;58851;42.984;20.336;2023-03-17T07:20:59;29.15;;;20.40;;
55330;SDS011;58851;42.984;20.336;2023-03-17T07:23:28;20.05;;;13.32;;
55330;SDS011;58851;42.984;20.336;2023-03-17T07:25:54;62.05;;;31.75;;
55330;SDS011;58851;42.984;20.336;2023-03-17T07:28:22;33.00;;;18.70;;
55330;SDS011;58851;42.984;20.336;2023-03-17T07:30:48;25.85;;;13.38;;
55330;SDS011;58851;42.984;20.336;2023-03-17T07:33:15;22.65;;;14.82;;
55330;SDS011;58851;42.984;20.336;2023-03-17T07:35:45;20.60;;;11.35;;
55330;SDS011;58851;42.984;20.336;2023-03-17T07:38:12;16.27;;;10.68;;
55330;SDS011;58851;42.984;20.336;2023-03-17T07:40:40;31.90;;;20.05;;
55330;SDS011;58851;42.984;20.336;2023-03-17T07:43:07;35.28;;;21.88;;
55330;SDS011;58851;42.984;20.336;2023-03-17T07:45:32;18.38;;;12.27;;
55330;SDS011;58851;42.984;20.336;2023-03-17T07:48:00;22.88;;;13.60;;
55330;SDS011;58851;42.984;20.336;2023-03-17T07:50:29;21.13;;;10.20;;
55330;SDS011;58851;42.984;20.336;2023-03-17T07:52:55;19.50;;;11.52;;
55330;SDS011;58851;42.984;20.336;2023-03-17T07:55:21;11.30;;;7.72;;
55330;SDS011;58851;42.984;20.336;2023-03-17T07:57:48;9.32;;;6.57;;
55330;SDS011;58851;42.984;20.336;2023-03-17T08:00:14;12.13;;;6.38;;
55330;SDS011;58851;42.984;20.336;2023-03-17T08:02:41;20.50;;;12.35;;
55330;SDS011;58851;42.984;20.336;2023-03-17T08:05:07;17.08;;;9.88;;
55330;SDS011;58851;42.984;20.336;2023-03-17T08:07:33;30.45;;;19.13;;
55330;SDS011;58851;42.984;20.336;2023-03-17T08:10:01;55.75;;;31.20;;
55330;SDS011;58851;42.984;20.336;2023-03-17T08:12:28;28.92;;;18.05;;
55330;SDS011;58851;42.984;20.336;2023-03-17T08:14:54;10.93;;;7.70;;
55330;SDS011;58851;42.984;20.336;2023-03-17T08:17:19;20.70;;;13.75;;
55330;SDS011;58851;42.984;20.336;2023-03-17T08:19:48;21.58;;;10.75;;
55330;SDS011;58851;42.984;20.336;2023-03-17T08:22:14;47.15;;;25.85;;
55330;SDS011;58851;42.984;20.336;2023-03-17T08:24:40;43.50;;;24.98;;
55330;SDS011;58851;42.984;20.336;2023-03-17T08:27:06;21.58;;;13.38;;
55330;SDS011;58851;42.984;20.336;2023-03-17T08:29:32;17.48;;;9.98;;
55330;SDS011;58851;42.984;20.336;2023-03-17T08:31:58;25.58;;;17.80;;
55330;SDS011;58851;42.984;20.336;2023-03-17T08:34:24;26.73;;;16.60;;
55330;SDS011;58851;42.984;20.336;2023-03-17T08:36:50;26.63;;;14.50;;
55330;SDS011;58851;42.984;20.336;2023-03-17T08:39:16;22.33;;;15.25;;
55330;SDS011;58851;42.984;20.336;2023-03-17T08:41:42;10.55;;;7.05;;
55330;SDS011;58851;42.984;20.336;2023-03-17T08:44:08;9.80;;;6.57;;
55330;SDS011;58851;42.984;20.336;2023-03-17T08:46:34;12.35;;;7.68;;
55330;SDS011;58851;42.984;20.336;2023-03-17T08:49:00;31.20;;;18.85;;
55330;SDS011;58851;42.984;20.336;2023-03-17T08:51:28;14.00;;;9.40;;
55330;SDS011;58851;42.984;20.336;2023-03-17T08:53:56;25.95;;;16.58;;
55330;SDS011;58851;42.984;20.336;2023-03-17T08:56:22;18.75;;;9.43;;
55330;SDS011;58851;42.984;20.336;2023-03-17T08:58:49;15.00;;;10.35;;
55330;SDS011;58851;42.984;20.336;2023-03-17T09:01:16;32.30;;;16.15;;
55330;SDS011;58851;42.984;20.336;2023-03-17T09:03:42;33.25;;;17.33;;
55330;SDS011;58851;42.984;20.336;2023-03-17T09:06:09;35.88;;;20.92;;
55330;SDS011;58851;42.984;20.336;2023-03-17T09:08:37;28.95;;;16.58;;
55330;SDS011;58851;42.984;20.336;2023-03-17T09:11:05;62.55;;;38.33;;
55330;SDS011;58851;42.984;20.336;2023-03-17T09:13:34;51.33;;;31.67;;
55330;SDS011;58851;42.984;20.336;2023-03-17T09:16:01;21.70;;;14.75;;
55330;SDS011;58851;42.984;20.336;2023-03-17T09:18:27;20.83;;;13.55;;
55330;SDS011;58851;42.984;20.336;2023-03-17T09:20:55;35.30;;;23.48;;
55330;SDS011;58851;42.984;20.336;2023-03-17T09:23:22;18.98;;;14.88;;
55330;SDS011;58851;42.984;20.336;2023-03-17T09:25:48;10.18;;;8.07;;
55330;SDS011;58851;42.984;20.336;2023-03-17T09:28:14;16.77;;;8.43;;
55330;SDS011;58851;42.984;20.336;2023-03-17T09:30:40;23.30;;;14.90;;
55330;SDS011;58851;42.984;20.336;2023-03-17T09:33:09;11.40;;;7.88;;
55330;SDS011;58851;42.984;20.336;2023-03-17T09:35:36;21.60;;;14.75;;
55330;SDS011;58851;42.984;20.336;2023-03-17T09:38:02;15.27;;;8.52;;
55330;SDS011;58851;42.984;20.336;2023-03-17T09:46:05;13.90;;;6.22;;
55330;SDS011;58851;42.984;20.336;2023-03-17T09:51:25;12.05;;;7.95;;
55330;SDS011;58851;42.984;20.336;2023-03-17T09:56:24;8.85;;;6.55;;
55330;SDS011;58851;42.984;20.336;2023-03-17T09:59:02;10.40;;;6.85;;
55330;SDS011;58851;42.984;20.336;2023-03-17T10:01:32;13.10;;;8.98;;
55330;SDS011;58851;42.984;20.336;2023-03-17T10:03:58;25.85;;;9.52;;
55330;SDS011;58851;42.984;20.336;2023-03-17T10:09:06;14.40;;;9.15;;
55330;SDS011;58851;42.984;20.336;2023-03-17T10:17:27;18.60;;;12.52;;
55330;SDS011;58851;42.984;20.336;2023-03-17T10:20:01;18.25;;;10.05;;
55330;SDS011;58851;42.984;20.336;2023-03-17T10:22:40;21.48;;;13.23;;
55330;SDS011;58851;42.984;20.336;2023-03-17T10:27:51;36.95;;;22.25;;
55330;SDS011;58851;42.984;20.336;2023-03-17T10:33:08;18.40;;;11.80;;
55330;SDS011;58851;42.984;20.336;2023-03-17T10:35:35;10.00;;;7.00;;
55330;SDS011;58851;42.984;20.336;2023-03-17T10:38:13;12.52;;;6.82;;
55330;SDS011;58851;42.984;20.336;2023-03-17T10:40:44;12.35;;;6.78;;
55330;SDS011;58851;42.984;20.336;2023-03-17T10:43:19;32.95;;;19.27;;
55330;SDS011;58851;42.984;20.336;2023-03-17T10:45:53;11.50;;;8.67;;
55330;SDS011;58851;42.984;20.336;2023-03-17T10:48:27;13.82;;;9.60;;
55330;SDS011;58851;42.984;20.336;2023-03-17T10:50:55;18.75;;;10.88;;
55330;SDS011;58851;42.984;20.336;2023-03-17T10:53:25;19.38;;;12.50;;
55330;SDS011;58851;42.984;20.336;2023-03-17T10:56:05;13.40;;;9.27;;
55330;SDS011;58851;42.984;20.336;2023-03-17T11:01:13;10.68;;;7.05;;
55330;SDS011;58851;42.984;20.336;2023-03-17T11:03:51;15.52;;;10.15;;
55330;SDS011;58851;42.984;20.336;2023-03-17T11:06:18;13.35;;;9.77;;
55330;SDS011;58851;42.984;20.336;2023-03-17T11:08:51;20.08;;;9.63;;
55330;SDS011;58851;42.984;20.336;2023-03-17T11:14:16;16.98;;;11.18;;
55330;SDS011;58851;42.984;20.336;2023-03-17T11:16:52;21.95;;;10.30;;
55330;SDS011;58851;42.984;20.336;2023-03-17T11:19:23;11.02;;;9.45;;
55330;SDS011;58851;42.984;20.336;2023-03-17T11:27:33;19.00;;;12.35;;
55330;SDS011;58851;42.984;20.336;2023-03-17T11:32:42;18.63;;;12.15;;
55330;SDS011;58851;42.984;20.336;2023-03-17T11:35:39;19.65;;;10.07;;
55330;SDS011;58851;42.984;20.336;2023-03-17T11:38:21;12.50;;;9.10;;
55330;SDS011;58851;42.984;20.336;2023-03-17T11:40:57;13.95;;;9.27;;
55330;SDS011;58851;42.984;20.336;2023-03-17T11:49:19;14.65;;;11.40;;
55330;SDS011;58851;42.984;20.336;2023-03-17T11:57:03;9.48;;;5.97;;
55330;SDS011;58851;42.984;20.336;2023-03-17T11:59:44;12.57;;;6.57;;
55330;SDS011;58851;42.984;20.336;2023-03-17T12:02:21;32.75;;;16.77;;
55330;SDS011;58851;42.984;20.336;2023-03-17T12:10:33;23.52;;;12.73;;
55330;SDS011;58851;42.984;20.336;2023-03-17T12:13:07;14.60;;;8.00;;
55330;SDS011;58851;42.984;20.336;2023-03-17T12:15:49;29.80;;;15.90;;
55330;SDS011;58851;42.984;20.336;2023-03-17T12:20:58;11.50;;;7.15;;
55330;SDS011;58851;42.984;20.336;2023-03-17T12:31:36;14.52;;;8.00;;
55330;SDS011;58851;42.984;20.336;2023-03-17T12:36:41;55.33;;;31.92;;
55330;SDS011;58851;42.984;20.336;2023-03-17T12:39:08;14.02;;;8.75;;
55330;SDS011;58851;42.984;20.336;2023-03-17T12:41:47;28.65;;;15.25;;
55330;SDS011;58851;42.984;20.336;2023-03-17T12:53:11;8.55;;;5.72;;
55330;SDS011;58851;42.984;20.336;2023-03-17T12:55:45;15.25;;;11.60;;
55330;SDS011;58851;42.984;20.336;2023-03-17T12:58:20;12.35;;;7.18;;
55330;SDS011;58851;42.984;20.336;2023-03-17T13:00:48;411.60;;;220.43;;
55330;SDS011;58851;42.984;20.336;2023-03-17T13:03:22;20.52;;;13.30;;
55330;SDS011;58851;42.984;20.336;2023-03-17T13:05:51;7.22;;;5.07;;
55330;SDS011;58851;42.984;20.336;2023-03-17T13:16:36;9.48;;;5.30;;
55330;SDS011;58851;42.984;20.336;2023-03-17T13:24:51;9.37;;;4.40;;
55330;SDS011;58851;42.984;20.336;2023-03-17T13:29:55;11.60;;;5.57;;
55330;SDS011;58851;42.984;20.336;2023-03-17T13:46:42;8.88;;;6.20;;
55330;SDS011;58851;42.984;20.336;2023-03-17T13:49:20;14.43;;;8.07;;
55330;SDS011;58851;42.984;20.336;2023-03-17T13:51:59;12.00;;;7.90;;
55330;SDS011;58851;42.984;20.336;2023-03-17T13:54:40;11.50;;;8.43;;
55330;SDS011;58851;42.984;20.336;2023-03-17T13:57:22;13.90;;;9.05;;
55330;SDS011;58851;42.984;20.336;2023-03-17T14:02:22;13.95;;;6.15;;
55330;SDS011;58851;42.984;20.336;2023-03-17T14:07:18;10.75;;;8.00;;
55330;SDS011;58851;42.984;20.336;2023-03-17T14:09:50;15.27;;;10.93;;
55330;SDS011;58851;42.984;20.336;2023-03-17T14:12:30;12.32;;;5.80;;
55330;SDS011;58851;42.984;20.336;2023-03-17T14:18:07;13.60;;;8.93;;
55330;SDS011;58851;42.984;20.336;2023-03-17T14:20:39;10.68;;;8.38;;
55330;SDS011;58851;42.984;20.336;2023-03-17T14:23:16;10.43;;;6.60;;
55330;SDS011;58851;42.984;20.336;2023-03-17T14:25:42;10.60;;;5.75;;
55330;SDS011;58851;42.984;20.336;2023-03-17T14:28:11;6.97;;;5.60;;
55330;SDS011;58851;42.984;20.336;2023-03-17T14:30:41;14.95;;;11.02;;
55330;SDS011;58851;42.984;20.336;2023-03-17T14:33:31;12.13;;;7.60;;
55330;SDS011;58851;42.984;20.336;2023-03-17T14:36:02;16.13;;;11.73;;
55330;SDS011;58851;42.984;20.336;2023-03-17T14:38:32;11.52;;;9.57;;
55330;SDS011;58851;42.984;20.336;2023-03-17T14:41:04;10.07;;;6.95;;
55330;SDS011;58851;42.984;20.336;2023-03-17T14:43:30;7.68;;;5.45;;
55330;SDS011;58851;42.984;20.336;2023-03-17T14:46:01;9.45;;;5.22;;
55330;SDS011;58851;42.984;20.336;2023-03-17T14:48:39;8.15;;;5.90;;
55330;SDS011;58851;42.984;20.336;2023-03-17T14:51:07;8.80;;;5.35;;
55330;SDS011;58851;42.984;20.336;2023-03-17T14:54:01;9.75;;;5.72;;
55330;SDS011;58851;42.984;20.336;2023-03-17T14:59:25;7.82;;;5.63;;
55330;SDS011;58851;42.984;20.336;2023-03-17T15:01:55;10.52;;;7.45;;
55330;SDS011;58851;42.984;20.336;2023-03-17T15:04:24;7.38;;;5.40;;
55330;SDS011;58851;42.984;20.336;2023-03-17T15:06:53;8.65;;;6.43;;
55330;SDS011;58851;42.984;20.336;2023-03-17T15:09:29;8.90;;;6.90;;
55330;SDS011;58851;42.984;20.336;2023-03-17T15:12:04;13.63;;;7.57;;
55330;SDS011;58851;42.984;20.336;2023-03-17T15:14:42;15.30;;;9.45;;
55330;SDS011;58851;42.984;20.336;2023-03-17T15:17:14;22.40;;;13.43;;
55330;SDS011;58851;42.984;20.336;2023-03-17T15:19:50;9.20;;;6.03;;
55330;SDS011;58851;42.984;20.336;2023-03-17T15:25:31;16.15;;;10.15;;
55330;SDS011;58851;42.984;20.336;2023-03-17T15:27:56;6.00;;;4.63;;
55330;SDS011;58851;42.984;20.336;2023-03-17T15:30:23;9.98;;;7.28;;
55330;SDS011;58851;42.984;20.336;2023-03-17T15:33:00;12.70;;;8.18;;
55330;SDS011;58851;42.984;20.336;2023-03-17T15:35:27;11.27;;;4.40;;
55330;SDS011;58851;42.984;20.336;2023-03-17T15:37:53;18.55;;;11.90;;
55330;SDS011;58851;42.984;20.336;2023-03-17T15:40:20;10.68;;;8.18;;
55330;SDS011;58851;42.984;20.336;2023-03-17T15:42:46;20.75;;;11.70;;
55330;SDS011;58851;42.984;20.336;2023-03-17T15:45:15;16.23;;;11.88;;
55330;SDS011;58851;42.984;20.336;2023-03-17T15:47:41;12.43;;;7.45;;
55330;SDS011;58851;42.984;20.336;2023-03-17T15:50:16;10.93;;;5.35;;
55330;SDS011;58851;42.984;20.336;2023-03-17T15:52:42;13.07;;;8.20;;
55330;SDS011;58851;42.984;20.336;2023-03-17T15:55:30;15.95;;;10.30;;
55330;SDS011;58851;42.984;20.336;2023-03-17T15:57:56;16.83;;;12.48;;
55330;SDS011;58851;42.984;20.336;2023-03-17T16:00:23;19.60;;;13.25;;
55330;SDS011;58851;42.984;20.336;2023-03-17T16:02:53;12.90;;;10.00;;
55330;SDS011;58851;42.984;20.336;2023-03-17T16:05:21;62.20;;;34.95;;
55330;SDS011;58851;42.984;20.336;2023-03-17T16:07:52;21.00;;;16.00;;
55330;SDS011;58851;42.984;20.336;2023-03-17T16:10:22;20.08;;;14.38;;
55330;SDS011;58851;42.984;20.336;2023-03-17T16:12:50;12.55;;;10.25;;
55330;SDS011;58851;42.984;20.336;2023-03-17T16:15:17;14.45;;;10.15;;
55330;SDS011;58851;42.984;20.336;2023-03-17T16:17:44;28.70;;;20.77;;
55330;SDS011;58851;42.984;20.336;2023-03-17T16:20:17;24.63;;;16.55;;
55330;SDS011;58851;42.984;20.336;2023-03-17T16:22:49;12.57;;;8.45;;
55330;SDS011;58851;42.984;20.336;2023-03-17T16:27:46;21.13;;;11.93;;
55330;SDS011;58851;42.984;20.336;2023-03-17T16:30:14;15.70;;;12.20;;
55330;SDS011;58851;42.984;20.336;2023-03-17T16:32:44;36.35;;;27.65;;
55330;SDS011;58851;42.984;20.336;2023-03-17T16:35:17;19.15;;;12.45;;